Time;durP1;ratioP1;P1;durP2;ratioP2;P2;SDS_P1;SDS_P2;PMS_P1;PMS_P2;Temp;Humidity;BMP_temperature;BMP_pressure;BME280_temperature;BME280_humidity;BME280_pressure;Samples;Min_cycle;Max_cycle;Signal;HPM_P1;HPM_P2
2022/06/17 00:01:23;;;;;;;6.82;3.22;;;22.90;62.10;;;;;;5065061;28;20424;-49
2022/06/17 00:03:49;;;;;;;6.55;3.20;;;22.90;62.00;;;;;;5059921;28;20040;-59
2022/06/17 00:06:21;;;;;;;7.97;3.35;;;22.90;62.00;;;;;;5047685;28;20033;-48
2022/06/17 00:08:49;;;;;;;6.75;3.67;;;22.90;62.10;;;;;;5067313;28;20056;-47
2022/06/17 00:11:34;;;;;;;9.13;3.30;;;22.90;62.10;;;;;;5064580;28;20126;-47
2022/06/17 00:13:59;;;;;;;6.10;3.17;;;22.90;62.00;;;;;;5069739;28;20043;-47
2022/06/17 00:16:26;;;;;;;5.47;3.50;;;23.00;61.30;;;;;;5064736;28;20123;-47
2022/06/17 00:18:53;;;;;;;5.95;3.40;;;23.00;60.90;;;;;;5052382;28;20457;-46
2022/06/17 00:21:46;;;;;;;7.20;3.63;;;23.00;60.60;;;;;;5058318;28;20552;-52
2022/06/17 00:24:16;;;;;;;6.40;3.28;;;23.00;61.00;;;;;;4962263;28;20074;-52
2022/06/17 00:26:43;;;;;;;5.63;3.05;;;23.00;60.90;;;;;;4955871;28;20078;-48
2022/06/17 00:29:13;;;;;;;6.05;3.30;;;22.80;61.00;;;;;;4958745;28;20046;-49
2022/06/17 00:31:39;;;;;;;5.07;3.08;;;22.70;61.50;;;;;;4959828;28;20114;-49
2022/06/17 00:34:07;;;;;;;6.45;3.50;;;22.70;61.40;;;;;;4958766;28;20042;-46
2022/06/17 00:36:34;;;;;;;8.60;3.58;;;22.70;61.50;;;;;;4957376;28;20047;-48
2022/06/17 00:39:00;;;;;;;6.55;3.72;;;22.60;61.60;;;;;;4957363;28;20039;-53
2022/06/17 00:41:39;;;;;;;5.82;3.60;;;22.60;61.50;;;;;;4958687;28;20515;-47
2022/06/17 00:44:37;;;;;;;6.03;3.95;;;22.60;61.80;;;;;;4941543;28;20035;-52
2022/06/17 00:47:18;;;;;;;5.97;3.20;;;22.50;61.90;;;;;;4986856;28;20046;-48
2022/06/17 00:49:47;;;;;;;8.05;3.63;;;22.50;61.80;;;;;;4982918;28;20498;-46
2022/06/17 00:52:27;;;;;;;5.65;3.40;;;22.50;61.80;;;;;;4997896;28;20065;-51
2022/06/17 00:55:10;;;;;;;7.07;3.25;;;22.50;61.90;;;;;;5000029;28;20049;-52
2022/06/17 00:57:44;;;;;;;7.55;3.92;;;22.40;62.10;;;;;;4990726;28;20511;-53
2022/06/17 01:00:25;;;;;;;5.65;3.30;;;22.50;62.20;;;;;;4982135;28;20271;-51
2022/06/17 01:02:55;;;;;;;6.32;3.65;;;22.50;62.00;;;;;;5084533;28;20025;-48
2022/06/17 01:05:35;;;;;;;5.63;3.50;;;22.50;61.70;;;;;;5082272;28;20392;-49
2022/06/17 01:08:12;;;;;;;5.15;3.35;;;22.50;61.70;;;;;;5089295;28;20024;-48
2022/06/17 01:10:45;;;;;;;4.68;3.40;;;22.50;61.80;;;;;;5089675;28;20492;-49
2022/06/17 01:13:11;;;;;;;5.80;3.30;;;22.50;61.70;;;;;;5082897;28;20043;-49
2022/06/17 01:15:41;;;;;;;5.63;3.40;;;22.60;61.60;;;;;;5077535;28;20036;-52
2022/06/17 01:18:07;;;;;;;5.72;3.20;;;22.60;62.00;;;;;;5088649;28;20030;-49
2022/06/17 01:20:35;;;;;;;5.20;3.30;;;22.70;61.10;;;;;;5084540;28;20155;-50
2022/06/17 01:23:07;;;;;;;4.50;3.40;;;22.60;61.10;;;;;;5081821;28;20512;-47
2022/06/17 01:25:37;;;;;;;6.88;3.45;;;22.60;61.10;;;;;;5084994;28;20469;-46
2022/06/17 01:28:09;;;;;;;8.43;3.70;;;22.60;61.00;;;;;;5084773;28;20029;-48
2022/06/17 01:30:45;;;;;;;5.22;3.40;;;22.60;61.00;;;;;;5081851;28;20081;-49
2022/06/17 01:33:32;;;;;;;6.88;3.78;;;22.60;61.00;;;;;;5084188;28;20494;-46
2022/06/17 01:36:04;;;;;;;7.82;3.70;;;22.60;61.20;;;;;;5082569;28;20024;-46
2022/06/17 01:38:31;;;;;;;4.53;3.17;;;22.60;61.00;;;;;;5083309;28;20024;-47
2022/06/17 01:40:59;;;;;;;10.55;4.10;;;22.50;62.00;;;;;;5069488;28;20075;-53
2022/06/17 01:43:53;;;;;;;8.13;3.75;;;22.60;61.40;;;;;;5071016;28;20036;-49
2022/06/17 01:46:32;;;;;;;5.75;3.40;;;22.70;61.00;;;;;;5074842;28;20110;-51
2022/06/17 01:49:03;;;;;;;6.72;3.78;;;22.70;60.90;;;;;;5067102;28;20048;-49
2022/06/17 01:51:32;;;;;;;5.90;3.70;;;22.70;61.00;;;;;;5065795;28;20466;-48
2022/06/17 01:54:02;;;;;;;6.63;3.40;;;22.60;61.00;;;;;;5047893;28;20078;-51
2022/06/17 01:56:30;;;;;;;7.18;4.03;;;22.70;61.10;;;;;;5069549;28;20020;-48
2022/06/17 01:58:58;;;;;;;8.68;3.60;;;22.60;61.00;;;;;;5068927;28;20465;-49
2022/06/17 02:01:27;;;;;;;5.30;3.40;;;22.60;61.20;;;;;;5062254;28;20195;-52
2022/06/17 02:04:07;;;;;;;5.97;3.97;;;22.50;61.30;;;;;;5066863;28;20037;-48
2022/06/17 02:06:56;;;;;;;7.85;4.03;;;22.50;61.40;;;;;;5045665;28;20059;-50
2022/06/17 02:09:21;;;;;;;6.15;3.65;;;22.50;61.40;;;;;;5067854;28;20044;-50
2022/06/17 02:11:48;;;;;;;6.00;3.90;;;22.50;61.90;;;;;;5058780;28;20048;-46
2022/06/17 02:14:14;;;;;;;8.10;3.60;;;22.50;61.30;;;;;;5055922;28;20351;-48
2022/06/17 02:16:45;;;;;;;7.57;3.92;;;22.50;61.20;;;;;;5043284;28;20033;-47
2022/06/17 02:19:11;;;;;;;8.73;3.72;;;22.50;61.20;;;;;;5045726;28;20029;-55
2022/06/17 02:22:24;;;;;;;9.60;3.90;;;22.50;61.60;;;;;;5069146;28;20025;-47
2022/06/17 02:24:52;;;;;;;9.77;4.00;;;22.50;61.50;;;;;;5036709;28;20121;-47
2022/06/17 02:27:19;;;;;;;10.18;3.78;;;22.50;61.10;;;;;;5068402;28;20089;-46
2022/06/17 02:29:47;;;;;;;6.35;4.10;;;22.50;61.00;;;;;;5064493;28;20028;-47
2022/06/17 02:32:14;;;;;;;6.57;4.30;;;22.50;61.00;;;;;;5062863;28;20379;-46
2022/06/17 02:34:56;;;;;;;8.05;4.35;;;22.50;61.00;;;;;;5052279;28;20067;-46
2022/06/17 02:37:24;;;;;;;10.43;4.28;;;22.50;61.10;;;;;;5068300;28;20052;-46
2022/06/17 02:39:51;;;;;;;6.80;3.90;;;22.40;61.10;;;;;;5063956;28;20029;-46
2022/06/17 02:42:37;;;;;;;6.18;4.15;;;22.50;61.00;;;;;;5063131;28;20382;-46
2022/06/17 02:45:21;;;;;;;7.18;4.10;;;22.40;60.90;;;;;;5071805;28;20052;-49
2022/06/17 02:47:47;;;;;;;6.95;4.32;;;22.40;61.00;;;;;;5052387;28;20131;-45
2022/06/17 02:50:26;;;;;;;6.75;4.32;;;22.50;61.00;;;;;;5072781;28;20051;-47
2022/06/17 02:52:53;;;;;;;7.00;4.10;;;22.40;61.20;;;;;;5067988;28;20483;-53
2022/06/17 02:55:29;;;;;;;8.20;3.63;;;22.40;61.10;;;;;;5062647;28;20041;-47
2022/06/17 02:58:21;;;;;;;6.22;3.47;;;22.40;60.60;;;;;;5045007;28;20367;-50
2022/06/17 03:00:47;;;;;;;8.25;3.97;;;22.40;61.10;;;;;;5063195;28;20454;-49
2022/06/17 03:03:16;;;;;;;6.93;3.90;;;22.40;61.10;;;;;;5064585;28;20024;-49
2022/06/17 03:05:45;;;;;;;7.68;4.00;;;22.60;60.30;;;;;;5063737;28;20078;-46
2022/06/17 03:08:25;;;;;;;6.20;3.92;;;22.50;60.30;;;;;;5063537;28;20460;-47
2022/06/17 03:10:54;;;;;;;9.55;4.40;;;22.60;60.10;;;;;;5062237;28;20048;-47
2022/06/17 03:13:30;;;;;;;6.63;4.07;;;22.70;59.50;;;;;;5063529;28;20064;-49
2022/06/17 03:15:59;;;;;;;9.30;4.30;;;22.60;59.60;;;;;;5059747;28;20085;-50
2022/06/17 03:18:25;;;;;;;8.52;3.80;;;22.70;59.60;;;;;;5062044;28;20458;-48
2022/06/17 03:20:51;;;;;;;5.70;3.67;;;22.70;59.60;;;;;;5068540;28;20055;-49
2022/06/17 03:23:25;;;;;;;8.63;4.32;;;22.60;59.50;;;;;;5060423;28;20039;-49
2022/06/17 03:26:14;;;;;;;6.53;3.55;;;22.60;59.50;;;;;;5043488;28;20047;-48
2022/06/17 03:28:48;;;;;;;7.32;4.10;;;22.60;59.50;;;;;;5064178;28;20033;-50
2022/06/17 03:31:33;;;;;;;5.60;3.97;;;22.70;59.30;;;;;;5069327;28;20052;-49
2022/06/17 03:34:14;;;;;;;7.30;4.70;;;22.60;59.50;;;;;;5037436;28;20036;-50
2022/06/17 03:36:52;;;;;;;7.15;4.10;;;22.70;59.10;;;;;;5062092;28;20498;-47
2022/06/17 03:39:59;;;;;;;7.93;4.38;;;22.60;58.70;;;;;;5058068;28;20017;-50
2022/06/17 03:43:06;;;;;;;6.15;3.90;;;22.70;58.60;;;;;;4979012;28;20086;-50
2022/06/17 03:46:03;;;;;;;9.48;3.88;;;22.80;58.20;;;;;;5007360;28;20048;-52
2022/06/17 03:48:50;;;;;;;8.45;4.13;;;22.80;58.10;;;;;;5075772;28;20032;-47
2022/06/17 03:51:24;;;;;;;8.48;4.50;;;22.80;58.20;;;;;;5084061;28;20542;-51
2022/06/17 03:53:51;;;;;;;6.50;3.80;;;22.80;57.80;;;;;;5081687;28;20469;-50
2022/06/17 03:56:24;;;;;;;8.70;3.88;;;22.80;58.10;;;;;;5078947;28;20039;-50
2022/06/17 03:58:52;;;;;;;9.90;4.35;;;22.80;57.70;;;;;;5084758;28;20490;-50
2022/06/17 04:01:39;;;;;;;8.60;4.30;;;22.90;57.40;;;;;;5077950;28;20040;-51
2022/06/17 04:04:13;;;;;;;6.30;3.90;;;22.80;57.40;;;;;;5079826;28;20142;-45
2022/06/17 04:06:42;;;;;;;6.53;4.40;;;22.70;57.50;;;;;;5079902;28;20028;-46
2022/06/17 04:09:31;;;;;;;8.32;4.07;;;22.70;57.60;;;;;;5087867;28;20042;-46
2022/06/17 04:12:12;;;;;;;7.85;4.00;;;22.70;57.50;;;;;;5076626;28;20054;-52
2022/06/17 04:15:00;;;;;;;6.47;3.80;;;22.60;57.80;;;;;;5087496;28;20043;-46
2022/06/17 04:17:39;;;;;;;8.18;4.05;;;22.50;58.60;;;;;;5081674;28;20032;-49
2022/06/17 04:20:24;;;;;;;7.68;4.18;;;22.50;58.40;;;;;;5087792;28;20024;-45
2022/06/17 04:22:56;;;;;;;11.38;4.45;;;22.50;58.10;;;;;;5085162;28;20062;-47
2022/06/17 04:25:46;;;;;;;7.45;3.72;;;22.50;57.90;;;;;;5079680;28;20032;-47
2022/06/17 04:28:25;;;;;;;10.02;4.13;;;22.50;58.10;;;;;;5091710;28;20032;-47
2022/06/17 04:31:00;;;;;;;6.30;3.72;;;22.40;58.30;;;;;;5081064;28;20115;-48
2022/06/17 04:33:44;;;;;;;8.85;3.88;;;22.50;58.10;;;;;;5086711;28;20043;-46
2022/06/17 04:36:19;;;;;;;9.07;4.50;;;22.40;59.10;;;;;;5087344;28;20081;-49
2022/06/17 04:39:03;;;;;;;6.47;3.88;;;22.40;58.90;;;;;;5083483;28;20024;-48
2022/06/17 04:41:33;;;;;;;6.32;3.97;;;22.40;58.60;;;;;;5075658;28;20488;-46
2022/06/17 04:44:02;;;;;;;8.25;4.13;;;22.60;57.90;;;;;;5064568;28;20063;-46
2022/06/17 04:46:35;;;;;;;6.55;3.85;;;22.70;57.40;;;;;;5073665;28;20434;-46
2022/06/17 04:49:02;;;;;;;12.98;4.07;;;22.70;57.80;;;;;;5048563;28;20469;-49
2022/06/17 04:51:31;;;;;;;12.77;4.70;;;22.60;57.40;;;;;;5066683;28;20032;-51
2022/06/17 04:53:57;;;;;;;11.45;4.63;;;22.70;57.40;;;;;;5066385;28;20118;-46
2022/06/17 04:56:30;;;;;;;9.32;4.25;;;22.80;57.10;;;;;;5058541;28;20037;-47
2022/06/17 04:58:57;;;;;;;8.23;4.65;;;22.90;56.90;;;;;;5061029;28;20032;-48
2022/06/17 05:01:24;;;;;;;12.00;5.13;;;23.00;56.70;;;;;;5067802;28;20033;-51
2022/06/17 05:03:59;;;;;;;16.67;4.65;;;23.00;56.70;;;;;;5061763;28;20072;-46
2022/06/17 05:06:24;;;;;;;9.15;4.13;;;23.10;56.60;;;;;;5060408;28;20028;-47
2022/06/17 05:09:06;;;;;;;7.65;4.60;;;23.30;56.30;;;;;;5033440;28;20493;-53
2022/06/17 05:11:43;;;;;;;8.27;4.65;;;23.40;55.90;;;;;;5048236;28;20062;-47
2022/06/17 05:14:13;;;;;;;10.90;4.57;;;23.30;55.90;;;;;;5068274;28;20107;-46
2022/06/17 05:16:38;;;;;;;10.27;4.25;;;23.40;55.50;;;;;;5048139;28;20031;-47
2022/06/17 05:19:04;;;;;;;9.77;4.50;;;23.50;55.40;;;;;;5062953;28;20021;-49
2022/06/17 05:21:30;;;;;;;7.32;4.10;;;23.60;55.20;;;;;;5057781;28;20561;-46
2022/06/17 05:23:57;;;;;;;7.90;4.40;;;23.60;55.10;;;;;;5060234;28;20477;-50
2022/06/17 05:26:24;;;;;;;6.78;4.28;;;23.70;55.00;;;;;;5067630;28;20492;-49
2022/06/17 05:28:50;;;;;;;10.07;4.35;;;23.70;55.10;;;;;;5068249;28;20021;-48
2022/06/17 05:31:20;;;;;;;6.82;4.35;;;23.70;54.70;;;;;;5040703;28;20040;-51
2022/06/17 05:33:50;;;;;;;9.90;4.43;;;23.70;54.50;;;;;;5069729;28;20032;-47
2022/06/17 05:36:16;;;;;;;10.15;4.00;;;23.70;54.60;;;;;;5065978;28;20032;-49
2022/06/17 05:38:43;;;;;;;8.48;4.60;;;23.80;54.60;;;;;;5064563;28;20033;-47
2022/06/17 05:41:17;;;;;;;9.25;4.35;;;23.90;54.30;;;;;;5063150;28;20020;-47
2022/06/17 05:43:43;;;;;;;12.15;4.95;;;24.00;54.40;;;;;;5068176;28;20060;-50
2022/06/17 05:46:09;;;;;;;8.95;4.25;;;24.00;54.20;;;;;;5065468;28;20084;-49
2022/06/17 05:48:34;;;;;;;7.38;4.13;;;24.00;54.00;;;;;;5067094;28;20044;-51
2022/06/17 05:51:01;;;;;;;7.10;4.38;;;24.10;53.70;;;;;;5062956;28;20054;-49
2022/06/17 05:53:26;;;;;;;5.60;4.07;;;24.20;53.50;;;;;;5047538;28;20072;-48
2022/06/17 05:55:54;;;;;;;7.55;4.10;;;24.20;53.60;;;;;;5058075;28;20155;-45
2022/06/17 05:58:20;;;;;;;6.38;3.90;;;24.20;53.40;;;;;;5064377;28;20073;-48
2022/06/17 06:00:46;;;;;;;8.93;4.10;;;24.30;53.40;;;;;;5040065;28;20431;-46
2022/06/17 06:03:21;;;;;;;9.68;3.80;;;24.40;53.30;;;;;;5064318;28;20370;-47
2022/06/17 06:05:47;;;;;;;8.73;4.00;;;24.40;53.20;;;;;;5038116;28;20153;-52
2022/06/17 06:08:13;;;;;;;7.75;4.20;;;24.50;53.10;;;;;;5040861;28;20115;-50
2022/06/17 06:10:39;;;;;;;7.80;4.35;;;24.50;52.80;;;;;;5070163;28;20040;-48
2022/06/17 06:13:05;;;;;;;10.50;4.05;;;24.70;52.60;;;;;;5053768;28;20036;-47
2022/06/17 06:15:33;;;;;;;7.10;3.80;;;24.60;52.80;;;;;;5063756;28;20035;-47
2022/06/17 06:17:59;;;;;;;7.50;4.25;;;24.50;53.40;;;;;;5072602;28;20036;-46
2022/06/17 06:20:30;;;;;;;5.90;3.90;;;24.60;52.80;;;;;;5068246;28;20378;-46
2022/06/17 06:22:56;;;;;;;10.80;4.30;;;24.60;53.00;;;;;;5044813;28;20029;-49
2022/06/17 06:25:23;;;;;;;8.10;4.05;;;24.70;52.80;;;;;;5051516;28;20040;-48
2022/06/17 06:27:49;;;;;;;9.57;4.32;;;24.70;52.60;;;;;;5068208;28;20090;-47
2022/06/17 06:30:27;;;;;;;13.10;4.50;;;24.70;52.80;;;;;;5052551;28;20152;-51
2022/06/17 06:33:00;;;;;;;11.93;4.07;;;24.90;52.50;;;;;;5049264;28;20503;-50
2022/06/17 06:35:29;;;;;;;6.95;4.22;;;25.00;52.40;;;;;;5058462;28;20025;-46
2022/06/17 06:37:55;;;;;;;7.72;4.40;;;25.00;52.50;;;;;;5066075;28;20032;-52
2022/06/17 06:40:21;;;;;;;7.85;4.43;;;25.30;52.10;;;;;;5064973;28;20036;-51
2022/06/17 06:42:49;;;;;;;11.73;4.63;;;25.40;51.80;;;;;;5041588;28;20025;-57
2022/06/17 06:45:22;;;;;;;7.95;4.35;;;25.60;51.70;;;;;;5031808;28;20028;-53
2022/06/17 06:47:49;;;;;;;8.77;4.50;;;25.60;51.30;;;;;;5062823;28;20028;-54
2022/06/17 06:50:19;;;;;;;7.63;4.63;;;26.00;51.00;;;;;;5060544;28;20037;-47
2022/06/17 06:52:45;;;;;;;13.00;5.38;;;27.70;49.80;;;;;;5068907;28;20020;-52
2022/06/17 06:55:14;;;;;;;10.75;4.30;;;31.10;44.10;;;;;;5070236;28;20149;-50
2022/06/17 06:57:53;;;;;;;11.05;4.60;;;34.10;38.40;;;;;;5037567;28;20364;-47
2022/06/17 07:00:22;;;;;;;8.77;4.00;;;36.60;34.10;;;;;;5065976;28;20036;-47
2022/06/17 07:02:48;;;;;;;9.10;3.78;;;38.00;32.10;;;;;;5065357;28;20052;-51
2022/06/17 07:05:14;;;;;;;6.93;3.92;;;39.20;30.70;;;;;;5042814;28;20044;-51
2022/06/17 07:07:41;;;;;;;9.30;4.03;;;40.00;29.30;;;;;;5056786;28;20052;-52
2022/06/17 07:10:12;;;;;;;6.38;3.53;;;40.50;29.30;;;;;;5049136;28;20063;-54
2022/06/17 07:12:37;;;;;;;5.95;3.35;;;41.30;28.30;;;;;;5044838;28;20056;-49
2022/06/17 07:15:04;;;;;;;8.48;4.10;;;41.70;27.90;;;;;;5063086;28;20033;-50
2022/06/17 07:17:29;;;;;;;14.90;3.95;;;42.80;27.40;;;;;;5063074;28;20032;-49
2022/06/17 07:19:55;;;;;;;7.22;4.05;;;43.20;26.90;;;;;;5058539;28;20025;-51
2022/06/17 07:22:22;;;;;;;8.73;3.50;;;43.90;26.60;;;;;;5061063;28;20025;-49
2022/06/17 07:24:50;;;;;;;6.60;3.33;;;44.80;25.90;;;;;;5063165;28;20051;-54
2022/06/17 07:27:16;;;;;;;6.38;4.00;;;44.70;25.80;;;;;;5059506;28;20031;-51
2022/06/17 07:29:41;;;;;;;10.30;3.72;;;43.50;26.10;;;;;;5040848;28;20104;-53
